sensor_id;sensor_type;location;lat;lon;timestamp;temperature;humidity
14144;DHT22;7152;48.348;10.980;2022-07-10T00:00:25;17.60;99.90
14144;DHT22;7152;48.348;10.980;2022-07-10T00:02:52;17.60;99.90
14144;DHT22;7152;48.348;10.980;2022-07-10T00:05:20;17.60;99.90
14144;DHT22;7152;48.348;10.980;2022-07-10T00:07:47;17.60;99.90
14144;DHT22;7152;48.348;10.980;2022-07-10T00:10:13;17.60;99.90
14144;DHT22;7152;48.348;10.980;2022-07-10T00:12:39;17.60;99.90
14144;DHT22;7152;48.348;10.980;2022-07-10T00:15:05;17.70;99.90
14144;DHT22;7152;48.348;10.980;2022-07-10T00:17:32;17.70;99.90
14144;DHT22;7152;48.348;10.980;2022-07-10T00:19:58;17.60;99.90
14144;DHT22;7152;48.348;10.980;2022-07-10T00:22:23;17.50;99.90
14144;DHT22;7152;48.348;10.980;2022-07-10T00:24:49;17.50;99.90
14144;DHT22;7152;48.348;10.980;2022-07-10T00:27:18;17.30;99.90
14144;DHT22;7152;48.348;10.980;2022-07-10T00:29:43;17.20;99.90
14144;DHT22;7152;48.348;10.980;2022-07-10T00:32:09;17.10;99.90
14144;DHT22;7152;48.348;10.980;2022-07-10T00:34:35;17.00;99.90
14144;DHT22;7152;48.348;10.980;2022-07-10T00:37:02;16.90;99.90
14144;DHT22;7152;48.348;10.980;2022-07-10T00:39:28;16.90;99.90
14144;DHT22;7152;48.348;10.980;2022-07-10T00:41:53;16.80;99.90
14144;DHT22;7152;48.348;10.980;2022-07-10T00:44:19;16.80;99.90
14144;DHT22;7152;48.348;10.980;2022-07-10T00:46:44;16.70;99.90
14144;DHT22;7152;48.348;10.980;2022-07-10T00:49:10;16.70;99.90
14144;DHT22;7152;48.348;10.980;2022-07-10T00:51:36;16.70;99.90
14144;DHT22;7152;48.348;10.980;2022-07-10T00:54:06;16.70;99.90
14144;DHT22;7152;48.348;10.980;2022-07-10T00:56:32;16.60;99.90
14144;DHT22;7152;48.348;10.980;2022-07-10T00:58:58;16.60;99.90
14144;DHT22;7152;48.348;10.980;2022-07-10T01:01:24;16.60;99.90
14144;DHT22;7152;48.348;10.980;2022-07-10T01:03:50;16.60;99.90
14144;DHT22;7152;48.348;10.980;2022-07-10T01:06:17;16.60;99.90
14144;DHT22;7152;48.348;10.980;2022-07-10T01:08:43;16.50;99.90
14144;DHT22;7152;48.348;10.980;2022-07-10T01:11:10;16.50;99.90
14144;DHT22;7152;48.348;10.980;2022-07-10T01:13:39;16.50;99.90
14144;DHT22;7152;48.348;10.980;2022-07-10T01:16:05;16.40;99.90
14144;DHT22;7152;48.348;10.980;2022-07-10T01:18:31;16.40;99.90
14144;DHT22;7152;48.348;10.980;2022-07-10T01:20:57;16.40;99.90
14144;DHT22;7152;48.348;10.980;2022-07-10T01:23:22;16.30;99.90
14144;DHT22;7152;48.348;10.980;2022-07-10T01:25:49;16.30;99.90
14144;DHT22;7152;48.348;10.980;2022-07-10T01:28:16;16.30;99.90
14144;DHT22;7152;48.348;10.980;2022-07-10T01:30:42;16.30;99.90
14144;DHT22;7152;48.348;10.980;2022-07-10T01:33:08;16.30;99.90
14144;DHT22;7152;48.348;10.980;2022-07-10T01:35:33;16.30;99.90
14144;DHT22;7152;48.348;10.980;2022-07-10T01:37:59;16.20;99.90
14144;DHT22;7152;48.348;10.980;2022-07-10T01:40:25;16.20;99.90
14144;DHT22;7152;48.348;10.980;2022-07-10T01:42:51;16.20;99.90
14144;DHT22;7152;48.348;10.980;2022-07-10T01:45:17;16.20;99.90
14144;DHT22;7152;48.348;10.980;2022-07-10T01:47:46;16.20;99.90
14144;DHT22;7152;48.348;10.980;2022-07-10T01:50:11;16.20;99.90
14144;DHT22;7152;48.348;10.980;2022-07-10T01:52:37;16.10;99.90
14144;DHT22;7152;48.348;10.980;2022-07-10T01:55:04;16.10;99.90
14144;DHT22;7152;48.348;10.980;2022-07-10T01:57:30;16.10;99.90
14144;DHT22;7152;48.348;10.980;2022-07-10T01:59:56;16.10;99.90
14144;DHT22;7152;48.348;10.980;2022-07-10T02:02:22;16.00;99.90
14144;DHT22;7152;48.348;10.980;2022-07-10T02:04:47;15.90;99.90
14144;DHT22;7152;48.348;10.980;2022-07-10T02:07:15;15.90;99.90
14144;DHT22;7152;48.348;10.980;2022-07-10T02:09:42;15.90;99.90
14144;DHT22;7152;48.348;10.980;2022-07-10T02:12:09;15.80;99.90
14144;DHT22;7152;48.348;10.980;2022-07-10T02:14:36;15.80;99.90
14144;DHT22;7152;48.348;10.980;2022-07-10T02:17:02;15.80;99.90
14144;DHT22;7152;48.348;10.980;2022-07-10T02:19:27;15.70;99.90
14144;DHT22;7152;48.348;10.980;2022-07-10T02:21:53;15.60;99.90
14144;DHT22;7152;48.348;10.980;2022-07-10T02:24:19;15.60;99.90
14144;DHT22;7152;48.348;10.980;2022-07-10T02:26:44;15.60;99.90
14144;DHT22;7152;48.348;10.980;2022-07-10T02:29:10;15.50;99.90
14144;DHT22;7152;48.348;10.980;2022-07-10T02:31:36;15.50;99.90
14144;DHT22;7152;48.348;10.980;2022-07-10T02:34:12;15.40;99.90
14144;DHT22;7152;48.348;10.980;2022-07-10T02:36:39;15.40;99.90
14144;DHT22;7152;48.348;10.980;2022-07-10T02:39:05;15.40;99.90
14144;DHT22;7152;48.348;10.980;2022-07-10T02:41:32;15.40;99.90
14144;DHT22;7152;48.348;10.980;2022-07-10T02:43:57;15.40;99.90
14144;DHT22;7152;48.348;10.980;2022-07-10T02:46:24;15.30;99.90
14144;DHT22;7152;48.348;10.980;2022-07-10T02:48:50;15.30;99.90
14144;DHT22;7152;48.348;10.980;2022-07-10T02:51:16;15.30;99.90
14144;DHT22;7152;48.348;10.980;2022-07-10T02:53:41;15.30;99.90
14144;DHT22;7152;48.348;10.980;2022-07-10T02:56:07;15.30;99.90
14144;DHT22;7152;48.348;10.980;2022-07-10T02:58:33;15.20;99.90
14144;DHT22;7152;48.348;10.980;2022-07-10T03:00:59;15.20;99.90
14144;DHT22;7152;48.348;10.980;2022-07-10T03:03:25;15.20;99.90
14144;DHT22;7152;48.348;10.980;2022-07-10T03:05:50;15.20;99.90
14144;DHT22;7152;48.348;10.980;2022-07-10T03:08:16;15.10;99.90
14144;DHT22;7152;48.348;10.980;2022-07-10T03:10:42;15.10;99.90
14144;DHT22;7152;48.348;10.980;2022-07-10T03:13:08;15.10;99.90
14144;DHT22;7152;48.348;10.980;2022-07-10T03:15:34;15.10;99.90
14144;DHT22;7152;48.348;10.980;2022-07-10T03:17:59;15.00;99.90
14144;DHT22;7152;48.348;10.980;2022-07-10T03:20:25;15.00;99.90
14144;DHT22;7152;48.348;10.980;2022-07-10T03:22:51;15.00;99.90
14144;DHT22;7152;48.348;10.980;2022-07-10T03:25:17;14.90;99.90
14144;DHT22;7152;48.348;10.980;2022-07-10T03:27:42;14.90;99.90
14144;DHT22;7152;48.348;10.980;2022-07-10T03:30:09;14.90;99.90
14144;DHT22;7152;48.348;10.980;2022-07-10T03:32:35;14.90;99.90
14144;DHT22;7152;48.348;10.980;2022-07-10T03:35:00;14.90;99.90
14144;DHT22;7152;48.348;10.980;2022-07-10T03:37:26;14.90;99.90
14144;DHT22;7152;48.348;10.980;2022-07-10T03:39:52;14.80;99.90
14144;DHT22;7152;48.348;10.980;2022-07-10T03:42:18;14.90;99.90
14144;DHT22;7152;48.348;10.980;2022-07-10T03:44:44;14.90;99.90
14144;DHT22;7152;48.348;10.980;2022-07-10T03:47:09;14.90;99.90
14144;DHT22;7152;48.348;10.980;2022-07-10T03:49:36;14.90;99.90
14144;DHT22;7152;48.348;10.980;2022-07-10T03:52:04;14.90;99.90
14144;DHT22;7152;48.348;10.980;2022-07-10T03:54:30;14.90;99.90
14144;DHT22;7152;48.348;10.980;2022-07-10T03:56:56;14.90;99.90
14144;DHT22;7152;48.348;10.980;2022-07-10T03:59:41;14.90;99.90
14144;DHT22;7152;48.348;10.980;2022-07-10T04:02:07;14.90;99.90
14144;DHT22;7152;48.348;10.980;2022-07-10T04:04:33;14.90;99.90
14144;DHT22;7152;48.348;10.980;2022-07-10T04:06:58;15.00;99.90
14144;DHT22;7152;48.348;10.980;2022-07-10T04:09:24;15.00;99.90
14144;DHT22;7152;48.348;10.980;2022-07-10T04:11:50;15.00;99.90
14144;DHT22;7152;48.348;10.980;2022-07-10T04:14:16;15.10;99.90
14144;DHT22;7152;48.348;10.980;2022-07-10T04:16:42;15.20;99.90
14144;DHT22;7152;48.348;10.980;2022-07-10T04:19:07;15.20;99.90
14144;DHT22;7152;48.348;10.980;2022-07-10T04:21:33;15.30;99.90
14144;DHT22;7152;48.348;10.980;2022-07-10T04:23:59;15.30;99.90
14144;DHT22;7152;48.348;10.980;2022-07-10T04:26:24;15.40;99.90
14144;DHT22;7152;48.348;10.980;2022-07-10T04:28:50;15.50;99.90
14144;DHT22;7152;48.348;10.980;2022-07-10T04:31:16;15.50;99.90
14144;DHT22;7152;48.348;10.980;2022-07-10T04:33:41;15.40;99.90
14144;DHT22;7152;48.348;10.980;2022-07-10T04:36:07;15.40;99.90
14144;DHT22;7152;48.348;10.980;2022-07-10T04:38:33;15.40;99.90
14144;DHT22;7152;48.348;10.980;2022-07-10T04:40:59;15.40;99.90
14144;DHT22;7152;48.348;10.980;2022-07-10T04:43:25;15.50;99.90
14144;DHT22;7152;48.348;10.980;2022-07-10T04:45:51;15.40;99.90
14144;DHT22;7152;48.348;10.980;2022-07-10T04:48:17;15.40;99.90
14144;DHT22;7152;48.348;10.980;2022-07-10T04:50:42;15.40;99.90
14144;DHT22;7152;48.348;10.980;2022-07-10T04:53:08;15.40;99.90
14144;DHT22;7152;48.348;10.980;2022-07-10T04:55:34;15.40;99.90
14144;DHT22;7152;48.348;10.980;2022-07-10T04:58:00;15.40;99.90
14144;DHT22;7152;48.348;10.980;2022-07-10T05:00:25;15.40;99.90
14144;DHT22;7152;48.348;10.980;2022-07-10T05:02:51;15.50;99.90
14144;DHT22;7152;48.348;10.980;2022-07-10T05:05:17;15.50;99.90
14144;DHT22;7152;48.348;10.980;2022-07-10T05:07:42;15.50;99.90
14144;DHT22;7152;48.348;10.980;2022-07-10T05:10:08;15.50;99.90
14144;DHT22;7152;48.348;10.980;2022-07-10T05:12:34;15.50;99.90
14144;DHT22;7152;48.348;10.980;2022-07-10T05:15:00;15.50;99.90
14144;DHT22;7152;48.348;10.980;2022-07-10T05:17:27;15.50;99.90
14144;DHT22;7152;48.348;10.980;2022-07-10T05:19:57;15.50;99.90
14144;DHT22;7152;48.348;10.980;2022-07-10T05:22:23;15.50;99.90
14144;DHT22;7152;48.348;10.980;2022-07-10T05:24:49;15.50;99.90
14144;DHT22;7152;48.348;10.980;2022-07-10T05:27:15;15.50;99.90
14144;DHT22;7152;48.348;10.980;2022-07-10T05:29:46;15.50;99.90
14144;DHT22;7152;48.348;10.980;2022-07-10T05:32:13;15.70;99.90
14144;DHT22;7152;48.348;10.980;2022-07-10T05:34:39;15.70;99.90
14144;DHT22;7152;48.348;10.980;2022-07-10T05:37:05;15.80;99.90
14144;DHT22;7152;48.348;10.980;2022-07-10T05:39:30;15.80;99.90
14144;DHT22;7152;48.348;10.980;2022-07-10T05:41:56;16.00;99.90
14144;DHT22;7152;48.348;10.980;2022-07-10T05:44:23;16.00;99.90
14144;DHT22;7152;48.348;10.980;2022-07-10T05:46:49;16.00;99.90
14144;DHT22;7152;48.348;10.980;2022-07-10T05:49:14;16.10;99.90
14144;DHT22;7152;48.348;10.980;2022-07-10T05:51:40;16.10;99.90
14144;DHT22;7152;48.348;10.980;2022-07-10T05:54:05;16.10;99.90
14144;DHT22;7152;48.348;10.980;2022-07-10T05:56:32;16.20;99.90
14144;DHT22;7152;48.348;10.980;2022-07-10T05:58:57;16.30;99.90
14144;DHT22;7152;48.348;10.980;2022-07-10T06:01:23;16.30;99.90
14144;DHT22;7152;48.348;10.980;2022-07-10T06:03:49;16.40;99.90
14144;DHT22;7152;48.348;10.980;2022-07-10T06:06:15;16.40;99.90
14144;DHT22;7152;48.348;10.980;2022-07-10T06:08:44;16.50;99.90
14144;DHT22;7152;48.348;10.980;2022-07-10T06:11:10;16.60;99.90
14144;DHT22;7152;48.348;10.980;2022-07-10T06:13:36;16.60;99.90
14144;DHT22;7152;48.348;10.980;2022-07-10T06:16:02;16.80;99.90
14144;DHT22;7152;48.348;10.980;2022-07-10T06:18:29;16.80;99.90
14144;DHT22;7152;48.348;10.980;2022-07-10T06:20:55;16.90;99.90
14144;DHT22;7152;48.348;10.980;2022-07-10T06:23:20;17.00;99.90
14144;DHT22;7152;48.348;10.980;2022-07-10T06:25:46;17.00;99.90
14144;DHT22;7152;48.348;10.980;2022-07-10T06:28:14;17.20;99.90
14144;DHT22;7152;48.348;10.980;2022-07-10T06:30:39;17.20;99.90
14144;DHT22;7152;48.348;10.980;2022-07-10T06:33:05;17.20;99.90
14144;DHT22;7152;48.348;10.980;2022-07-10T06:35:30;17.30;99.90
14144;DHT22;7152;48.348;10.980;2022-07-10T06:37:56;17.40;99.90
14144;DHT22;7152;48.348;10.980;2022-07-10T06:40:22;17.40;99.90
14144;DHT22;7152;48.348;10.980;2022-07-10T06:42:48;17.40;99.90
14144;DHT22;7152;48.348;10.980;2022-07-10T06:45:14;17.30;99.90
14144;DHT22;7152;48.348;10.980;2022-07-10T06:47:40;17.20;99.90
14144;DHT22;7152;48.348;10.980;2022-07-10T06:50:21;17.10;99.90
14144;DHT22;7152;48.348;10.980;2022-07-10T06:52:48;17.10;99.90
14144;DHT22;7152;48.348;10.980;2022-07-10T06:55:14;17.30;99.90
14144;DHT22;7152;48.348;10.980;2022-07-10T06:57:40;17.40;99.90
14144;DHT22;7152;48.348;10.980;2022-07-10T07:00:06;17.50;99.90
14144;DHT22;7152;48.348;10.980;2022-07-10T07:02:32;17.40;99.90
14144;DHT22;7152;48.348;10.980;2022-07-10T07:04:58;17.40;99.90
14144;DHT22;7152;48.348;10.980;2022-07-10T07:07:23;17.30;99.90
14144;DHT22;7152;48.348;10.980;2022-07-10T07:09:49;17.40;99.90
14144;DHT22;7152;48.348;10.980;2022-07-10T07:12:16;17.30;99.90
14144;DHT22;7152;48.348;10.980;2022-07-10T07:14:43;17.30;99.90
14144;DHT22;7152;48.348;10.980;2022-07-10T07:17:09;17.30;99.90
14144;DHT22;7152;48.348;10.980;2022-07-10T07:19:37;17.40;99.90
14144;DHT22;7152;48.348;10.980;2022-07-10T07:22:22;17.30;99.90
14144;DHT22;7152;48.348;10.980;2022-07-10T07:25:07;17.10;99.90
14144;DHT22;7152;48.348;10.980;2022-07-10T07:27:35;17.00;99.90
14144;DHT22;7152;48.348;10.980;2022-07-10T07:30:09;16.90;99.90
14144;DHT22;7152;48.348;10.980;2022-07-10T07:32:41;16.80;99.90
14144;DHT22;7152;48.348;10.980;2022-07-10T07:35:08;16.90;99.90
14144;DHT22;7152;48.348;10.980;2022-07-10T07:37:50;17.10;99.90
14144;DHT22;7152;48.348;10.980;2022-07-10T07:40:18;17.50;99.90
14144;DHT22;7152;48.348;10.980;2022-07-10T07:42:53;17.70;99.90
14144;DHT22;7152;48.348;10.980;2022-07-10T07:45:19;18.10;99.90
14144;DHT22;7152;48.348;10.980;2022-07-10T07:47:58;18.20;99.90
14144;DHT22;7152;48.348;10.980;2022-07-10T07:50:31;18.30;99.90
14144;DHT22;7152;48.348;10.980;2022-07-10T07:52:57;18.40;99.90
14144;DHT22;7152;48.348;10.980;2022-07-10T07:55:24;18.40;99.90
14144;DHT22;7152;48.348;10.980;2022-07-10T07:57:55;18.30;99.90
14144;DHT22;7152;48.348;10.980;2022-07-10T08:00:25;18.20;99.90
14144;DHT22;7152;48.348;10.980;2022-07-10T08:02:52;18.40;99.90
14144;DHT22;7152;48.348;10.980;2022-07-10T08:05:18;18.40;99.90
14144;DHT22;7152;48.348;10.980;2022-07-10T08:07:52;18.50;99.90
14144;DHT22;7152;48.348;10.980;2022-07-10T08:10:20;18.50;99.90
14144;DHT22;7152;48.348;10.980;2022-07-10T08:12:46;18.80;99.90
14144;DHT22;7152;48.348;10.980;2022-07-10T08:15:14;18.90;99.90
14144;DHT22;7152;48.348;10.980;2022-07-10T08:17:40;19.10;99.90
14144;DHT22;7152;48.348;10.980;2022-07-10T08:20:09;19.00;99.90
14144;DHT22;7152;48.348;10.980;2022-07-10T08:22:36;19.10;99.90
14144;DHT22;7152;48.348;10.980;2022-07-10T08:25:02;19.10;99.90
14144;DHT22;7152;48.348;10.980;2022-07-10T08:27:28;19.20;99.90
14144;DHT22;7152;48.348;10.980;2022-07-10T08:29:53;19.10;99.90
14144;DHT22;7152;48.348;10.980;2022-07-10T08:32:19;19.30;99.90
14144;DHT22;7152;48.348;10.980;2022-07-10T08:34:45;19.40;99.90
14144;DHT22;7152;48.348;10.980;2022-07-10T08:37:11;19.50;99.90
14144;DHT22;7152;48.348;10.980;2022-07-10T08:39:36;19.50;99.90
14144;DHT22;7152;48.348;10.980;2022-07-10T08:42:05;19.50;99.90
14144;DHT22;7152;48.348;10.980;2022-07-10T08:44:32;19.20;99.90
14144;DHT22;7152;48.348;10.980;2022-07-10T08:46:58;19.10;99.90
14144;DHT22;7152;48.348;10.980;2022-07-10T08:49:27;19.00;99.90
14144;DHT22;7152;48.348;10.980;2022-07-10T08:52:04;19.30;99.90
14144;DHT22;7152;48.348;10.980;2022-07-10T08:54:32;19.70;99.90
14144;DHT22;7152;48.348;10.980;2022-07-10T08:56:58;19.70;99.90
14144;DHT22;7152;48.348;10.980;2022-07-10T08:59:25;19.80;99.90
14144;DHT22;7152;48.348;10.980;2022-07-10T09:01:50;19.70;99.90
14144;DHT22;7152;48.348;10.980;2022-07-10T09:04:17;19.80;99.90
14144;DHT22;7152;48.348;10.980;2022-07-10T09:06:46;19.90;99.90
14144;DHT22;7152;48.348;10.980;2022-07-10T09:09:12;20.00;99.90
14144;DHT22;7152;48.348;10.980;2022-07-10T09:11:39;20.10;99.90
14144;DHT22;7152;48.348;10.980;2022-07-10T09:14:08;20.30;99.90
14144;DHT22;7152;48.348;10.980;2022-07-10T09:16:35;20.40;99.90
14144;DHT22;7152;48.348;10.980;2022-07-10T09:19:21;20.50;99.90
14144;DHT22;7152;48.348;10.980;2022-07-10T09:21:52;20.50;99.90
14144;DHT22;7152;48.348;10.980;2022-07-10T09:24:18;20.60;99.90
14144;DHT22;7152;48.348;10.980;2022-07-10T09:27:07;20.60;99.90
14144;DHT22;7152;48.348;10.980;2022-07-10T09:29:45;20.70;99.90
14144;DHT22;7152;48.348;10.980;2022-07-10T09:32:12;20.80;99.90
14144;DHT22;7152;48.348;10.980;2022-07-10T09:34:41;20.70;99.90
14144;DHT22;7152;48.348;10.980;2022-07-10T09:37:28;20.80;99.90
14144;DHT22;7152;48.348;10.980;2022-07-10T09:42:36;21.10;99.90
14144;DHT22;7152;48.348;10.980;2022-07-10T09:47:56;21.10;99.90
14144;DHT22;7152;48.348;10.980;2022-07-10T09:53:04;20.70;99.90
14144;DHT22;7152;48.348;10.980;2022-07-10T09:55:33;20.70;99.90
14144;DHT22;7152;48.348;10.980;2022-07-10T09:58:01;20.60;99.90
14144;DHT22;7152;48.348;10.980;2022-07-10T10:00:32;20.40;99.90
14144;DHT22;7152;48.348;10.980;2022-07-10T10:02:59;20.60;99.90
14144;DHT22;7152;48.348;10.980;2022-07-10T10:05:35;21.10;99.90
14144;DHT22;7152;48.348;10.980;2022-07-10T10:10:50;21.40;99.90
14144;DHT22;7152;48.348;10.980;2022-07-10T10:13:22;21.50;99.90
14144;DHT22;7152;48.348;10.980;2022-07-10T10:15:52;21.90;99.90
14144;DHT22;7152;48.348;10.980;2022-07-10T10:18:19;22.30;99.90
14144;DHT22;7152;48.348;10.980;2022-07-10T10:20:48;22.40;99.90
14144;DHT22;7152;48.348;10.980;2022-07-10T10:23:16;22.60;99.90
14144;DHT22;7152;48.348;10.980;2022-07-10T10:25:43;22.60;99.90
14144;DHT22;7152;48.348;10.980;2022-07-10T10:28:10;22.40;99.90
14144;DHT22;7152;48.348;10.980;2022-07-10T10:30:38;22.80;99.90
14144;DHT22;7152;48.348;10.980;2022-07-10T10:36:07;23.20;99.90
14144;DHT22;7152;48.348;10.980;2022-07-10T10:41:39;23.70;99.90
14144;DHT22;7152;48.348;10.980;2022-07-10T10:49:21;23.90;99.90
14144;DHT22;7152;48.348;10.980;2022-07-10T10:54:28;24.50;99.90
14144;DHT22;7152;48.348;10.980;2022-07-10T10:57:15;24.10;99.90
14144;DHT22;7152;48.348;10.980;2022-07-10T10:59:54;23.60;99.90
14144;DHT22;7152;48.348;10.980;2022-07-10T11:02:32;23.20;99.90
14144;DHT22;7152;48.348;10.980;2022-07-10T11:08:03;22.50;99.90
14144;DHT22;7152;48.348;10.980;2022-07-10T11:10:40;22.80;99.90
14144;DHT22;7152;48.348;10.980;2022-07-10T11:13:07;23.70;99.90
14144;DHT22;7152;48.348;10.980;2022-07-10T11:15:35;24.40;99.90
14144;DHT22;7152;48.348;10.980;2022-07-10T11:20:43;25.10;99.90
14144;DHT22;7152;48.348;10.980;2022-07-10T11:26:12;24.80;99.70
14144;DHT22;7152;48.348;10.980;2022-07-10T11:31:25;26.00;98.10
14144;DHT22;7152;48.348;10.980;2022-07-10T11:33:56;26.70;98.40
14144;DHT22;7152;48.348;10.980;2022-07-10T11:36:26;27.30;97.20
14144;DHT22;7152;48.348;10.980;2022-07-10T11:39:07;27.20;94.50
14144;DHT22;7152;48.348;10.980;2022-07-10T11:41:33;27.70;95.00
14144;DHT22;7152;48.348;10.980;2022-07-10T11:44:01;27.00;94.40
14144;DHT22;7152;48.348;10.980;2022-07-10T11:46:28;26.70;93.60
14144;DHT22;7152;48.348;10.980;2022-07-10T11:48:55;27.30;93.60
14144;DHT22;7152;48.348;10.980;2022-07-10T11:51:30;27.20;92.90
14144;DHT22;7152;48.348;10.980;2022-07-10T11:54:03;26.60;92.60
14144;DHT22;7152;48.348;10.980;2022-07-10T11:56:32;26.80;92.20
14144;DHT22;7152;48.348;10.980;2022-07-10T11:59:06;27.00;91.90
14144;DHT22;7152;48.348;10.980;2022-07-10T12:01:34;26.80;91.30
14144;DHT22;7152;48.348;10.980;2022-07-10T12:04:04;26.40;90.70
14144;DHT22;7152;48.348;10.980;2022-07-10T12:06:32;27.10;90.80
14144;DHT22;7152;48.348;10.980;2022-07-10T12:09:35;27.40;90.40
14144;DHT22;7152;48.348;10.980;2022-07-10T12:12:04;27.80;88.70
14144;DHT22;7152;48.348;10.980;2022-07-10T12:14:30;28.00;87.10
14144;DHT22;7152;48.348;10.980;2022-07-10T12:16:57;28.40;86.70
14144;DHT22;7152;48.348;10.980;2022-07-10T12:21:51;28.60;85.50
14144;DHT22;7152;48.348;10.980;2022-07-10T12:24:18;28.80;85.20
14144;DHT22;7152;48.348;10.980;2022-07-10T12:26:45;29.10;83.50
14144;DHT22;7152;48.348;10.980;2022-07-10T12:29:28;29.50;83.50
14144;DHT22;7152;48.348;10.980;2022-07-10T12:32:01;29.60;79.20
14144;DHT22;7152;48.348;10.980;2022-07-10T12:34:40;29.90;78.30
14144;DHT22;7152;48.348;10.980;2022-07-10T12:37:15;29.20;78.00
14144;DHT22;7152;48.348;10.980;2022-07-10T12:39:49;29.30;78.40
14144;DHT22;7152;48.348;10.980;2022-07-10T12:42:27;29.00;77.80
14144;DHT22;7152;48.348;10.980;2022-07-10T12:44:53;28.60;77.00
14144;DHT22;7152;48.348;10.980;2022-07-10T12:47:20;28.40;78.40
14144;DHT22;7152;48.348;10.980;2022-07-10T12:50:05;28.90;78.70
14144;DHT22;7152;48.348;10.980;2022-07-10T12:52:33;29.30;76.10
14144;DHT22;7152;48.348;10.980;2022-07-10T12:55:10;28.50;77.00
14144;DHT22;7152;48.348;10.980;2022-07-10T13:00:15;29.50;75.50
14144;DHT22;7152;48.348;10.980;2022-07-10T13:02:41;29.90;74.80
14144;DHT22;7152;48.348;10.980;2022-07-10T13:05:07;30.60;74.80
14144;DHT22;7152;48.348;10.980;2022-07-10T13:07:35;30.00;73.20
14144;DHT22;7152;48.348;10.980;2022-07-10T13:10:04;30.10;73.60
14144;DHT22;7152;48.348;10.980;2022-07-10T13:12:31;29.60;73.60
14144;DHT22;7152;48.348;10.980;2022-07-10T13:14:57;29.60;73.00
14144;DHT22;7152;48.348;10.980;2022-07-10T13:17:23;30.00;72.80
14144;DHT22;7152;48.348;10.980;2022-07-10T13:19:50;30.60;72.70
14144;DHT22;7152;48.348;10.980;2022-07-10T13:22:17;30.60;70.60
14144;DHT22;7152;48.348;10.980;2022-07-10T13:24:42;30.90;70.10
14144;DHT22;7152;48.348;10.980;2022-07-10T13:27:08;30.00;69.60
14144;DHT22;7152;48.348;10.980;2022-07-10T13:29:33;30.20;69.30
14144;DHT22;7152;48.348;10.980;2022-07-10T13:31:59;30.10;69.20
14144;DHT22;7152;48.348;10.980;2022-07-10T13:34:25;30.00;67.40
14144;DHT22;7152;48.348;10.980;2022-07-10T13:36:51;29.80;67.90
14144;DHT22;7152;48.348;10.980;2022-07-10T13:39:17;30.20;68.00
14144;DHT22;7152;48.348;10.980;2022-07-10T13:41:42;30.90;68.80
14144;DHT22;7152;48.348;10.980;2022-07-10T13:44:08;30.10;68.40
14144;DHT22;7152;48.348;10.980;2022-07-10T13:46:34;29.90;67.90
14144;DHT22;7152;48.348;10.980;2022-07-10T13:49:00;29.00;67.80
14144;DHT22;7152;48.348;10.980;2022-07-10T13:51:25;28.20;68.70
14144;DHT22;7152;48.348;10.980;2022-07-10T13:53:51;28.10;69.10
14144;DHT22;7152;48.348;10.980;2022-07-10T13:56:17;28.90;69.00
14144;DHT22;7152;48.348;10.980;2022-07-10T13:58:42;29.90;68.30
14144;DHT22;7152;48.348;10.980;2022-07-10T14:01:08;30.40;67.30
14144;DHT22;7152;48.348;10.980;2022-07-10T14:03:34;30.80;65.20
14144;DHT22;7152;48.348;10.980;2022-07-10T14:06:00;31.50;65.60
14144;DHT22;7152;48.348;10.980;2022-07-10T14:08:25;31.60;64.40
14144;DHT22;7152;48.348;10.980;2022-07-10T14:10:52;31.70;64.00
14144;DHT22;7152;48.348;10.980;2022-07-10T14:13:17;32.20;63.60
14144;DHT22;7152;48.348;10.980;2022-07-10T14:15:43;32.30;63.20
14144;DHT22;7152;48.348;10.980;2022-07-10T14:18:13;32.30;62.60
14144;DHT22;7152;48.348;10.980;2022-07-10T14:20:39;30.60;62.30
14144;DHT22;7152;48.348;10.980;2022-07-10T14:23:43;30.50;63.60
14144;DHT22;7152;48.348;10.980;2022-07-10T14:26:10;31.30;64.00
14144;DHT22;7152;48.348;10.980;2022-07-10T14:28:36;31.50;62.60
14144;DHT22;7152;48.348;10.980;2022-07-10T14:31:04;31.20;62.00
14144;DHT22;7152;48.348;10.980;2022-07-10T14:33:33;31.80;61.90
14144;DHT22;7152;48.348;10.980;2022-07-10T14:35:59;32.60;61.20
14144;DHT22;7152;48.348;10.980;2022-07-10T14:38:26;32.10;60.60
14144;DHT22;7152;48.348;10.980;2022-07-10T14:40:52;31.50;60.70
14144;DHT22;7152;48.348;10.980;2022-07-10T14:43:19;30.60;60.80
14144;DHT22;7152;48.348;10.980;2022-07-10T14:45:45;30.20;61.90
14144;DHT22;7152;48.348;10.980;2022-07-10T14:48:12;31.10;61.80
14144;DHT22;7152;48.348;10.980;2022-07-10T14:50:38;32.10;61.80
14144;DHT22;7152;48.348;10.980;2022-07-10T14:53:05;33.10;61.00
14144;DHT22;7152;48.348;10.980;2022-07-10T14:55:31;33.60;59.10
14144;DHT22;7152;48.348;10.980;2022-07-10T14:57:57;34.10;58.30
14144;DHT22;7152;48.348;10.980;2022-07-10T15:00:22;33.40;57.70
14144;DHT22;7152;48.348;10.980;2022-07-10T15:02:48;33.80;57.30
14144;DHT22;7152;48.348;10.980;2022-07-10T15:05:14;33.30;56.80
14144;DHT22;7152;48.348;10.980;2022-07-10T15:07:39;33.50;56.90
14144;DHT22;7152;48.348;10.980;2022-07-10T15:10:05;32.60;56.80
14144;DHT22;7152;48.348;10.980;2022-07-10T15:12:34;32.50;56.60
14144;DHT22;7152;48.348;10.980;2022-07-10T15:15:00;32.70;57.00
14144;DHT22;7152;48.348;10.980;2022-07-10T15:17:26;33.60;57.20
14144;DHT22;7152;48.348;10.980;2022-07-10T15:19:51;34.30;56.90
14144;DHT22;7152;48.348;10.980;2022-07-10T15:22:17;34.90;56.70
14144;DHT22;7152;48.348;10.980;2022-07-10T15:24:44;35.30;56.40
14144;DHT22;7152;48.348;10.980;2022-07-10T15:27:10;35.60;54.70
14144;DHT22;7152;48.348;10.980;2022-07-10T15:29:35;34.90;54.20
14144;DHT22;7152;48.348;10.980;2022-07-10T15:32:01;35.10;53.60
14144;DHT22;7152;48.348;10.980;2022-07-10T15:34:26;35.30;52.70
14144;DHT22;7152;48.348;10.980;2022-07-10T15:36:52;35.90;53.00
14144;DHT22;7152;48.348;10.980;2022-07-10T15:39:18;35.90;52.60
14144;DHT22;7152;48.348;10.980;2022-07-10T15:41:44;36.00;52.00
14144;DHT22;7152;48.348;10.980;2022-07-10T15:44:12;35.70;51.40
14144;DHT22;7152;48.348;10.980;2022-07-10T15:46:38;35.90;50.90
14144;DHT22;7152;48.348;10.980;2022-07-10T15:49:03;36.40;51.20
14144;DHT22;7152;48.348;10.980;2022-07-10T15:51:30;36.00;50.70
14144;DHT22;7152;48.348;10.980;2022-07-10T15:53:56;35.20;51.30
14144;DHT22;7152;48.348;10.980;2022-07-10T15:56:22;35.30;51.60
14144;DHT22;7152;48.348;10.980;2022-07-10T15:58:48;35.80;51.30
14144;DHT22;7152;48.348;10.980;2022-07-10T16:01:14;35.80;50.80
14144;DHT22;7152;48.348;10.980;2022-07-10T16:03:44;35.70;50.70
14144;DHT22;7152;48.348;10.980;2022-07-10T16:06:13;34.50;50.40
14144;DHT22;7152;48.348;10.980;2022-07-10T16:08:39;33.40;51.30
14144;DHT22;7152;48.348;10.980;2022-07-10T16:11:05;32.30;52.20
14144;DHT22;7152;48.348;10.980;2022-07-10T16:13:32;31.80;52.60